MMPB/PBC METAR and TAF weather

Enter ICAO airport designator
Station Type Date Time Source
MMPB METAR 2019/07/20 01:43 UTC NOAA

MMPB 200143Z 02005KT 8SM BKN020CB OVC100 15/11 A3032 RMK 8/96/ VC RA


Station Type Date Time Source
MMPB Decoded METAR 2019/07/20 01:43 UTC NOAA

Puebla, Pue., Mexico (MMPB) 19-03N 098-10W
Jul 19, 2019 - 09:43 PM EDT / 2019.07.20 0143 UTC
Wind: from the NNE (020 degrees) at 6 MPH (5 KT):0
Visibility: 8 mile(s):0
Sky conditions: overcast
Weather: Cumulonimbus clouds observed
Temperature: 59 F (15 C)
Dew Point: 51 F (11 C)
Relative Humidity: 76%
Pressure (altimeter): 30.32 in. Hg (1026 hPa)
ob: MMPB 200143Z 02005KT 8SM BKN020CB OVC100 15/11 A3032 RMK 8/96/ VC RA
cycle: 1

Station Type Date Time Source
MMPB TAF 2019/07/20 06:40 UTC NOAA

TAF MMPB 200433Z 2006/2106 00000KT P6SM SCT020 BKN250
FM201800 16008KT P6SM SCT020 SCT250
FM202200 16010KT P6SM BKN020CB BKN080
TEMPO 2022/2102 3SM TSRA BKN020CB

Example: see airport list